createdAt,value
2017-04-30T00:00:16.598Z,1.82
2017-04-30T00:01:29.142Z,1.85
2017-04-30T00:02:41.665Z,1.82
2017-04-30T00:03:54.183Z,1.85
2017-04-30T00:05:06.707Z,1.82
2017-04-30T00:06:19.239Z,1.79
2017-04-30T00:07:31.762Z,1.81
2017-04-30T00:08:44.294Z,1.74
2017-04-30T00:09:56.836Z,1.7
2017-04-30T00:11:09.415Z,1.63
2017-04-30T00:12:21.653Z,1.68
2017-04-30T00:13:33.873Z,1.7
2017-04-30T00:14:45.802Z,1.64
2017-04-30T00:15:58.327Z,1.58
2017-04-30T00:17:10.840Z,1.7
2017-04-30T00:18:23.351Z,1.68
2017-04-30T00:19:35.915Z,1.67
2017-04-30T00:20:48.436Z,1.6
2017-04-30T00:22:00.953Z,1.63
2017-04-30T00:23:13.193Z,1.58
2017-04-30T00:24:25.470Z,1.56
2017-04-30T00:25:37.976Z,1.64
2017-04-30T00:26:50.512Z,1.57
2017-04-30T00:28:03.011Z,1.57
2017-04-30T00:29:14.953Z,1.56
2017-04-30T00:30:27.467Z,1.52
2017-04-30T00:31:39.988Z,1.68
2017-04-30T00:32:52.537Z,1.57
2017-04-30T00:34:05.059Z,1.58
2017-04-30T00:35:16.686Z,1.57
2017-04-30T00:36:29.207Z,1.53
2017-04-30T00:37:41.729Z,1.52
2017-04-30T00:38:54.251Z,1.5
2017-04-30T00:40:06.814Z,1.57
2017-04-30T00:41:18.734Z,1.58
2017-04-30T00:42:30.961Z,1.57
2017-04-30T00:43:43.476Z,1.49
2017-04-30T00:44:56.001Z,1.48
2017-04-30T00:46:08.497Z,1.56
2017-04-30T00:47:20.694Z,1.57
2017-04-30T00:48:32.909Z,1.57
2017-04-30T00:49:45.130Z,1.56
2017-04-30T00:50:57.672Z,1.4
2017-04-30T00:52:10.222Z,1.4
2017-04-30T00:53:22.744Z,1.49
2017-04-30T00:54:35.273Z,1.39
2017-04-30T00:55:47.793Z,1.46
2017-04-30T00:57:00.309Z,1.39
2017-04-30T00:58:12.801Z,1.4
2017-04-30T00:59:25.356Z,1.49
2017-04-30T01:00:37.898Z,1.34
2017-04-30T01:01:50.414Z,1.42
2017-04-30T01:03:02.931Z,1.45
2017-04-30T01:04:15.151Z,1.32
2017-04-30T01:05:27.384Z,1.36
2017-04-30T01:06:40.176Z,1.34
2017-04-30T01:07:52.691Z,1.4
2017-04-30T01:09:05.223Z,1.36
2017-04-30T01:10:17.742Z,1.38
2017-04-30T01:11:30.263Z,1.42
2017-04-30T01:12:42.781Z,1.39
2017-04-30T01:13:54.999Z,1.36
2017-04-30T01:15:07.499Z,1.25
2017-04-30T01:16:19.994Z,1.39
2017-04-30T01:17:32.532Z,1.31
2017-04-30T01:18:45.059Z,1.25
2017-04-30T01:19:57.586Z,1.3
2017-04-30T01:21:09.812Z,1.28
2017-04-30T01:22:22.366Z,1.27
2017-04-30T01:23:35.167Z,1.32
2017-04-30T01:24:47.665Z,1.28
2017-04-30T01:26:00.189Z,1.31
2017-04-30T01:27:12.728Z,1.25
2017-04-30T01:28:25.253Z,1.27
2017-04-30T01:29:37.502Z,1.27
2017-04-30T01:30:50.074Z,1.27
2017-04-30T01:32:02.592Z,1.25
2017-04-30T01:33:15.133Z,1.24
2017-04-30T01:34:27.334Z,1.27
2017-04-30T01:35:39.856Z,1.25
2017-04-30T01:36:52.374Z,1.21
2017-04-30T01:38:04.907Z,1.2
2017-04-30T01:39:17.411Z,1.16
2017-04-30T01:40:29.942Z,1.2
2017-04-30T01:41:42.476Z,1.18
2017-04-30T01:42:55.005Z,1.28
2017-04-30T01:44:07.520Z,1.2
2017-04-30T01:45:19.750Z,1.21
2017-04-30T01:46:31.988Z,1.28
2017-04-30T01:47:44.509Z,1.2
2017-04-30T01:48:56.488Z,1.21
2017-04-30T01:50:09.005Z,1.14
2017-04-30T01:51:21.221Z,1.18
2017-04-30T01:52:33.718Z,1.16
2017-04-30T01:53:46.259Z,1.2
2017-04-30T01:54:58.810Z,1.16
2017-04-30T01:56:11.337Z,1.25
2017-04-30T01:57:23.551Z,1.21
2017-04-30T01:58:36.097Z,1.02
2017-04-30T01:59:48.600Z,1.21
2017-04-30T02:01:01.102Z,1.21
2017-04-30T02:02:13.317Z,1.04
2017-04-30T02:03:25.581Z,1.03
2017-04-30T02:04:38.102Z,1.16
2017-04-30T02:05:50.602Z,1.2
2017-04-30T02:07:03.144Z,1.04
2017-04-30T02:08:15.089Z,1.14
2017-04-30T02:09:27.639Z,1.14
2017-04-30T02:10:40.156Z,1.09
2017-04-30T02:11:52.948Z,1.13
2017-04-30T02:13:05.452Z,1.13
2017-04-30T02:14:17.679Z,1.16
2017-04-30T02:15:30.161Z,1.16
2017-04-30T02:16:42.694Z,1.12
2017-04-30T02:17:55.231Z,1.13
2017-04-30T02:19:07.753Z,1.14
2017-04-30T02:20:20.298Z,1.18
2017-04-30T02:21:32.794Z,1.12
2017-04-30T02:22:45.319Z,1.18
2017-04-30T02:23:57.846Z,1.2
2017-04-30T02:25:10.062Z,1.24
2017-04-30T02:26:22.557Z,1.18
2017-04-30T02:27:35.089Z,1.12
2017-04-30T02:28:47.342Z,1.25
2017-04-30T02:29:59.874Z,1.3
2017-04-30T02:31:12.082Z,1.27
2017-04-30T02:32:24.286Z,1.2
2017-04-30T02:33:36.488Z,1.25
2017-04-30T02:34:49.028Z,1.24
2017-04-30T02:36:01.568Z,1.3
2017-04-30T02:37:13.498Z,1.31
2017-04-30T02:38:25.708Z,1.31
2017-04-30T02:39:38.230Z,1.27
2017-04-30T02:40:50.734Z,1.3
2017-04-30T02:42:03.246Z,1.22
2017-04-30T02:43:15.452Z,1.3
2017-04-30T02:44:27.995Z,1.28
2017-04-30T02:45:40.537Z,1.38
2017-04-30T02:46:53.043Z,1.38
2017-04-30T02:48:05.586Z,1.4
2017-04-30T02:49:17.202Z,1.39
2017-04-30T02:50:29.721Z,1.48
2017-04-30T02:51:42.274Z,1.48
2017-04-30T02:52:54.796Z,1.5
2017-04-30T02:54:07.035Z,1.39
2017-04-30T02:55:19.251Z,1.6
2017-04-30T02:56:31.776Z,1.56
2017-04-30T02:57:44.306Z,1.61
2017-04-30T02:58:56.874Z,1.61
2017-04-30T03:00:09.098Z,1.68
2017-04-30T03:01:21.617Z,1.52
2017-04-30T03:02:33.838Z,1.6
2017-04-30T03:03:46.385Z,1.64
2017-04-30T03:04:58.927Z,1.56
2017-04-30T03:06:11.399Z,1.64
2017-04-30T03:07:23.939Z,1.52
2017-04-30T03:08:36.460Z,1.53
2017-04-30T03:09:48.711Z,1.48
2017-04-30T03:11:01.235Z,1.48
2017-04-30T03:12:13.780Z,1.53
2017-04-30T03:13:26.319Z,1.57
2017-04-30T03:14:38.864Z,1.49
2017-04-30T03:15:51.382Z,1.53
2017-04-30T03:17:03.610Z,1.66
2017-04-30T03:18:16.160Z,1.53
2017-04-30T03:19:28.695Z,1.5
2017-04-30T03:20:40.925Z,1.48
2017-04-30T03:21:53.447Z,1.5
2017-04-30T03:23:05.941Z,1.48
2017-04-30T03:24:17.887Z,1.61
2017-04-30T03:25:30.453Z,1.53
2017-04-30T03:26:42.973Z,1.53
2017-04-30T03:27:55.199Z,1.56
2017-04-30T03:29:07.740Z,1.66
2017-04-30T03:30:20.285Z,1.67
2017-04-30T03:31:32.770Z,1.61
2017-04-30T03:32:45.337Z,1.66
2017-04-30T03:33:58.124Z,1.7
2017-04-30T03:35:10.691Z,1.63
2017-04-30T03:36:23.194Z,1.58
2017-04-30T03:37:35.716Z,1.64
2017-04-30T03:38:48.237Z,1.64
2017-04-30T03:40:00.784Z,1.7
2017-04-30T03:41:12.407Z,1.58
2017-04-30T03:42:24.953Z,1.6
2017-04-30T03:43:37.491Z,1.57
2017-04-30T03:44:49.695Z,1.66
2017-04-30T03:46:02.240Z,1.6
2017-04-30T03:47:14.775Z,1.64
2017-04-30T03:48:26.996Z,1.61
2017-04-30T03:49:39.854Z,1.64
2017-04-30T03:50:52.413Z,1.68
2017-04-30T03:52:04.921Z,1.68
2017-04-30T03:53:16.863Z,1.64
2017-04-30T03:54:29.404Z,1.67
2017-04-30T03:55:41.622Z,1.63
2017-04-30T03:56:54.131Z,1.64
2017-04-30T03:58:06.696Z,1.71
2017-04-30T03:59:19.245Z,1.74
2017-04-30T04:00:31.791Z,1.79
2017-04-30T04:01:44.001Z,1.78
2017-04-30T04:02:55.922Z,1.76
2017-04-30T04:04:08.468Z,1.86
2017-04-30T04:05:20.700Z,1.82
2017-04-30T04:06:32.960Z,1.79
2017-04-30T04:07:45.468Z,1.81
2017-04-30T04:08:58.003Z,1.85
2017-04-30T04:10:10.233Z,1.88
2017-04-30T04:11:23.005Z,1.82
2017-04-30T04:12:35.552Z,1.82
2017-04-30T04:13:47.822Z,1.92
2017-04-30T04:15:00.384Z,1.95
2017-04-30T04:16:12.590Z,1.92
2017-04-30T04:17:24.805Z,1.98
2017-04-30T04:18:36.756Z,1.97
2017-04-30T04:19:49.298Z,1.97
2017-04-30T04:21:01.822Z,2
2017-04-30T04:22:14.610Z,2.03
2017-04-30T04:23:26.864Z,1.95
2017-04-30T04:24:39.406Z,1.97
2017-04-30T04:25:51.920Z,2
2017-04-30T04:27:04.465Z,2.01
2017-04-30T04:28:16.675Z,1.88
2017-04-30T04:29:28.908Z,1.97
2017-04-30T04:30:41.453Z,2.1
2017-04-30T04:31:53.974Z,2
2017-04-30T04:33:06.808Z,2.03
2017-04-30T04:34:19.048Z,2.12
2017-04-30T04:35:31.254Z,2.04
2017-04-30T04:36:43.786Z,2.18
2017-04-30T04:37:56.307Z,2.12
2017-04-30T04:39:09.095Z,2.08
2017-04-30T04:40:21.628Z,2.07
2017-04-30T04:41:34.127Z,2.05
2017-04-30T04:42:46.037Z,2.08
2017-04-30T04:43:58.284Z,2.1
2017-04-30T04:45:10.831Z,2.15
2017-04-30T04:46:23.033Z,2.21
2017-04-30T04:47:35.549Z,2.25
2017-04-30T04:48:48.045Z,2.25
2017-04-30T04:50:00.591Z,2.16
2017-04-30T04:51:12.808Z,2.3
2017-04-30T04:52:25.054Z,2.39
2017-04-30T04:53:37.328Z,2.4
2017-04-30T04:54:49.571Z,2.39
2017-04-30T04:56:01.796Z,2.36
2017-04-30T04:57:13.999Z,2.34
2017-04-30T04:58:26.567Z,2.4
2017-04-30T04:59:39.084Z,2.54
2017-04-30T05:00:51.613Z,2.51
2017-04-30T05:02:04.147Z,2.51
2017-04-30T05:03:16.371Z,2.61
2017-04-30T05:04:28.913Z,2.64
2017-04-30T05:05:41.671Z,2.76
2017-04-30T05:06:53.934Z,2.73
2017-04-30T05:08:06.188Z,2.76
2017-04-30T05:09:18.723Z,2.76
2017-04-30T05:10:31.255Z,2.83
2017-04-30T05:11:43.797Z,2.85
2017-04-30T05:12:56.321Z,2.88
2017-04-30T05:14:08.856Z,2.9
2017-04-30T05:15:21.359Z,2.94
2017-04-30T05:16:33.880Z,2.94
2017-04-30T05:17:46.081Z,2.91
2017-04-30T05:18:58.614Z,2.98
2017-04-30T05:20:10.836Z,2.94
2017-04-30T05:21:23.065Z,2.95
2017-04-30T05:22:35.577Z,2.95
2017-04-30T05:23:48.084Z,3
2017-04-30T05:25:00.572Z,3.01
2017-04-30T05:26:12.799Z,3.03
2017-04-30T05:27:25.297Z,3.08
2017-04-30T05:28:37.820Z,3.11
2017-04-30T05:29:50.339Z,3.15
2017-04-30T05:31:02.899Z,3.09
2017-04-30T05:32:15.120Z,3.21
2017-04-30T05:33:27.666Z,3.31
2017-04-30T05:34:40.216Z,3.41
2017-04-30T05:35:52.756Z,3.29
2017-04-30T05:37:04.986Z,3.24
2017-04-30T05:38:17.461Z,3.24
2017-04-30T05:39:29.995Z,3.41
2017-04-30T05:40:42.198Z,3.36
2017-04-30T05:41:54.717Z,3.46
2017-04-30T05:43:07.244Z,3.53
2017-04-30T05:44:19.479Z,3.49
2017-04-30T05:45:31.700Z,3.49
2017-04-30T05:46:44.224Z,3.67
2017-04-30T05:47:56.770Z,3.7
2017-04-30T05:49:09.296Z,3.63
2017-04-30T05:50:21.516Z,3.67
2017-04-30T05:51:34.043Z,3.76
2017-04-30T05:52:46.566Z,3.7
2017-04-30T05:53:58.799Z,3.84
2017-04-30T05:55:11.301Z,3.88
2017-04-30T05:56:23.523Z,3.99
2017-04-30T05:57:36.013Z,4.02
2017-04-30T05:58:48.259Z,4.04
2017-04-30T06:00:01.078Z,4.06
2017-04-30T06:01:13.606Z,4.22
2017-04-30T06:02:26.117Z,4.34
2017-04-30T06:03:38.325Z,4.18
2017-04-30T06:04:50.859Z,4.36
2017-04-30T06:06:03.380Z,4.39
2017-04-30T06:07:15.334Z,4.32
2017-04-30T06:08:27.881Z,4.43
2017-04-30T06:09:40.450Z,4.43
2017-04-30T06:10:52.647Z,4.46
2017-04-30T06:12:05.159Z,4.5
2017-04-30T06:13:17.385Z,4.6
2017-04-30T06:14:29.914Z,4.71
2017-04-30T06:15:42.430Z,4.82
2017-04-30T06:16:54.973Z,4.89
2017-04-30T06:18:07.494Z,4.98
2017-04-30T06:19:19.723Z,5.08
2017-04-30T06:20:31.682Z,5.2
2017-04-30T06:21:44.463Z,5.37
2017-04-30T06:22:56.973Z,5.56
2017-04-30T06:24:09.502Z,5.97
2017-04-30T06:25:22.041Z,6.22
2017-04-30T06:26:34.639Z,6.65
2017-04-30T06:27:47.193Z,7.1
2017-04-30T06:28:59.754Z,7.5
2017-04-30T06:30:12.002Z,7.91
2017-04-30T06:31:24.549Z,8.41
2017-04-30T06:32:36.476Z,8.77
2017-04-30T06:33:49.048Z,9.16
2017-04-30T06:35:01.266Z,9.49
2017-04-30T06:36:13.793Z,9.85
2017-04-30T06:37:26.032Z,10.12
2017-04-30T06:38:38.582Z,10.39
2017-04-30T06:39:51.116Z,10.77
2017-04-30T06:41:03.644Z,11.19
2017-04-30T06:42:15.893Z,11.55
2017-04-30T06:43:28.691Z,11.85
2017-04-30T06:44:41.233Z,12.11
2017-04-30T06:45:53.753Z,12.39
2017-04-30T06:47:06.282Z,12.65
2017-04-30T06:48:18.824Z,12.84
2017-04-30T06:49:31.041Z,13.08
2017-04-30T06:50:43.579Z,13.13
2017-04-30T06:51:55.813Z,13.47
2017-04-30T06:53:08.034Z,13.75
2017-04-30T06:54:20.571Z,13.83
2017-04-30T06:55:33.106Z,14.2
2017-04-30T06:56:45.672Z,14.44
2017-04-30T06:57:57.959Z,14.61
2017-04-30T06:59:10.209Z,14.81
2017-04-30T07:00:22.456Z,14.9
2017-04-30T07:01:35.018Z,15.08
2017-04-30T07:02:47.566Z,15.17
2017-04-30T07:04:00.067Z,15.3
2017-04-30T07:05:12.890Z,15.41
2017-04-30T07:06:25.458Z,15.45
2017-04-30T07:07:37.697Z,15.35
2017-04-30T07:08:50.217Z,15.39
2017-04-30T07:10:02.772Z,15.36
2017-04-30T07:11:14.988Z,15.55
2017-04-30T07:12:27.518Z,15.66
2017-04-30T07:13:40.062Z,15.84
2017-04-30T07:14:52.304Z,15.96
2017-04-30T07:16:04.822Z,15.96
2017-04-30T07:17:17.048Z,16.03
2017-04-30T07:18:29.290Z,16.06
2017-04-30T07:19:41.517Z,16.22
2017-04-30T07:20:54.088Z,16.16
2017-04-30T07:22:06.623Z,16.18
2017-04-30T07:23:19.204Z,16.28
2017-04-30T07:24:31.757Z,16.31
2017-04-30T07:25:44.321Z,16.31
2017-04-30T07:26:56.839Z,16.39
2017-04-30T07:28:09.381Z,16.31
2017-04-30T07:29:21.634Z,16.24
2017-04-30T07:30:33.931Z,16.12
2017-04-30T07:31:46.521Z,16.08
2017-04-30T07:32:59.094Z,16.08
2017-04-30T07:34:11.373Z,16.02
2017-04-30T07:35:23.302Z,15.76
2017-04-30T07:36:35.577Z,15.7
2017-04-30T07:37:48.145Z,15.78
2017-04-30T07:39:00.669Z,15.92
2017-04-30T07:40:13.212Z,15.91
2017-04-30T07:41:25.461Z,15.91
2017-04-30T07:42:37.413Z,15.88
2017-04-30T07:43:49.957Z,15.91
2017-04-30T07:45:02.195Z,16.05
2017-04-30T07:46:14.741Z,16.24
2017-04-30T07:47:26.645Z,16.37
2017-04-30T07:48:39.158Z,16.57
2017-04-30T07:49:51.703Z,16.73
2017-04-30T07:51:04.254Z,16.72
2017-04-30T07:52:16.808Z,16.98
2017-04-30T07:53:29.367Z,17.02
2017-04-30T07:54:41.893Z,17.05
2017-04-30T07:55:54.140Z,17.13
2017-04-30T07:57:06.666Z,17.3
2017-04-30T07:58:19.201Z,17.39
2017-04-30T07:59:31.981Z,17.44
2017-04-30T08:00:44.545Z,17.42
2017-04-30T08:01:56.770Z,17.54
2017-04-30T08:03:09.313Z,17.65
2017-04-30T08:04:21.887Z,17.87
2017-04-30T08:05:34.129Z,17.59
2017-04-30T08:06:46.671Z,17.49
2017-04-30T08:07:59.202Z,17.39
2017-04-30T08:09:11.746Z,17.07
2017-04-30T08:10:24.310Z,16.94
2017-04-30T08:11:36.259Z,16.72
2017-04-30T08:12:48.776Z,16.44
2017-04-30T08:14:01.333Z,16.39
2017-04-30T08:15:13.579Z,16.1
2017-04-30T08:16:25.850Z,15.99
2017-04-30T08:17:38.398Z,15.65
2017-04-30T08:18:50.967Z,15.48
2017-04-30T08:20:03.532Z,15.14
2017-04-30T08:21:15.784Z,14.92
2017-04-30T08:22:28.321Z,14.67
2017-04-30T08:23:40.872Z,14.58
2017-04-30T08:24:53.459Z,14.23
2017-04-30T08:26:06.014Z,13.94
2017-04-30T08:27:18.530Z,13.78
2017-04-30T08:28:31.084Z,13.65
2017-04-30T08:29:43.344Z,13.4
2017-04-30T08:30:55.575Z,13.3
2017-04-30T08:32:08.139Z,13.17
2017-04-30T08:33:20.385Z,13.03
2017-04-30T08:34:32.936Z,13.03
2017-04-30T08:35:45.464Z,12.84
2017-04-30T08:36:57.997Z,12.76
2017-04-30T08:38:10.543Z,12.81
2017-04-30T08:39:22.776Z,12.73
2017-04-30T08:40:35.316Z,12.72
2017-04-30T08:41:47.557Z,12.83
2017-04-30T08:42:59.785Z,12.86
2017-04-30T08:44:12.328Z,12.72
2017-04-30T08:45:24.867Z,12.8
2017-04-30T08:46:37.401Z,12.93
2017-04-30T08:47:49.933Z,12.86
2017-04-30T08:49:02.510Z,12.8
2017-04-30T08:50:14.461Z,12.78
2017-04-30T08:51:26.994Z,12.86
2017-04-30T08:52:39.249Z,12.91
2017-04-30T08:53:51.762Z,12.93
2017-04-30T08:55:03.712Z,13.02
2017-04-30T08:56:15.958Z,13.08
2017-04-30T08:57:28.500Z,13.02
2017-04-30T08:58:41.028Z,13.01
2017-04-30T08:59:53.546Z,12.83
2017-04-30T09:01:06.100Z,12.9
2017-04-30T09:02:18.641Z,12.99
2017-04-30T09:03:31.167Z,12.91
2017-04-30T09:04:43.741Z,12.93
2017-04-30T09:05:56.257Z,12.95
2017-04-30T09:07:08.793Z,12.94
2017-04-30T09:08:21.043Z,12.91
2017-04-30T09:09:33.573Z,12.88
2017-04-30T09:10:46.113Z,12.84
2017-04-30T09:11:58.655Z,12.73
2017-04-30T09:13:11.200Z,12.68
2017-04-30T09:14:23.731Z,12.69
2017-04-30T09:15:35.974Z,12.83
2017-04-30T09:16:48.510Z,12.8
2017-04-30T09:18:00.730Z,12.84
2017-04-30T09:19:12.983Z,12.78
2017-04-30T09:20:25.508Z,12.84
2017-04-30T09:21:37.750Z,12.94
2017-04-30T09:22:50.268Z,12.91
2017-04-30T09:24:02.500Z,12.93
2017-04-30T09:25:14.460Z,12.94
2017-04-30T09:26:26.976Z,12.99
2017-04-30T09:27:38.923Z,13.01
2017-04-30T09:28:51.445Z,13.05
2017-04-30T09:30:04.005Z,13.17
2017-04-30T09:31:16.573Z,13.11
2017-04-30T09:32:29.108Z,13.19
2017-04-30T09:33:41.638Z,13.13
2017-04-30T09:34:54.182Z,13.11
2017-04-30T09:36:06.729Z,13.2
2017-04-30T09:37:19.270Z,13.19
2017-04-30T09:38:31.786Z,13.23
2017-04-30T09:39:44.319Z,13.12
2017-04-30T09:40:56.557Z,13.17
2017-04-30T09:42:08.784Z,13.24
2017-04-30T09:43:21.306Z,13.23
2017-04-30T09:44:33.866Z,13.31
2017-04-30T09:45:46.397Z,13.36
2017-04-30T09:46:58.936Z,13.31
2017-04-30T09:48:11.454Z,13.37
2017-04-30T09:49:23.689Z,13.42
2017-04-30T09:50:36.228Z,13.45
2017-04-30T09:51:48.499Z,13.5
2017-04-30T09:53:01.047Z,13.54
2017-04-30T09:54:13.291Z,13.6
2017-04-30T09:55:25.828Z,13.64
2017-04-30T09:56:38.086Z,13.68
2017-04-30T09:57:50.322Z,13.73
2017-04-30T09:59:03.129Z,13.82
2017-04-30T10:00:15.367Z,13.93
2017-04-30T10:01:27.912Z,14.04
2017-04-30T10:02:40.433Z,14.19
2017-04-30T10:03:52.976Z,14.37
2017-04-30T10:05:05.222Z,14.45
2017-04-30T10:06:17.155Z,14.63
2017-04-30T10:07:29.417Z,14.82
2017-04-30T10:08:41.667Z,15.02
2017-04-30T10:09:54.213Z,15.3
2017-04-30T10:11:06.752Z,15.52
2017-04-30T10:12:19.001Z,15.72
2017-04-30T10:13:31.554Z,15.9
2017-04-30T10:14:44.114Z,16.12
2017-04-30T10:15:56.637Z,16.4
2017-04-30T10:17:09.188Z,16.49
2017-04-30T10:18:21.134Z,16.77
2017-04-30T10:19:33.435Z,16.95
2017-04-30T10:20:46.221Z,17.22
2017-04-30T10:21:58.789Z,17.47
2017-04-30T10:23:11.342Z,17.91
2017-04-30T10:24:23.594Z,18.21
2017-04-30T10:25:36.152Z,18.36
2017-04-30T10:26:48.681Z,18.63
2017-04-30T10:28:00.632Z,18.82
2017-04-30T10:29:12.575Z,19.09
2017-04-30T10:30:25.222Z,19.24
2017-04-30T10:31:37.742Z,19.41
2017-04-30T10:32:49.981Z,19.45
2017-04-30T10:34:02.508Z,19.45
2017-04-30T10:35:14.747Z,19.44
2017-04-30T10:36:26.974Z,19.44
2017-04-30T10:37:39.519Z,19.59
2017-04-30T10:38:51.760Z,19.7
2017-04-30T10:40:04.030Z,19.9
2017-04-30T10:41:16.275Z,20.12
2017-04-30T10:42:28.848Z,20.29
2017-04-30T10:43:41.120Z,20.33
2017-04-30T10:44:53.673Z,20.58
2017-04-30T10:46:06.269Z,20.78
2017-04-30T10:47:18.515Z,21.04
2017-04-30T10:48:31.059Z,21.38
2017-04-30T10:49:43.624Z,21.5
2017-04-30T10:50:55.870Z,21.51
2017-04-30T10:52:08.113Z,21.74
2017-04-30T10:53:20.366Z,22.01
2017-04-30T10:54:32.904Z,22.28
2017-04-30T10:55:45.135Z,22.59
2017-04-30T10:56:57.677Z,22.55
2017-04-30T10:58:09.900Z,22.96
2017-04-30T10:59:22.201Z,23.23
2017-04-30T11:00:34.498Z,23.55
2017-04-30T11:01:47.030Z,23.85
2017-04-30T11:02:59.583Z,24.09
2017-04-30T11:04:11.848Z,24.32
2017-04-30T11:05:24.426Z,24.43
2017-04-30T11:06:37.000Z,24.71
2017-04-30T11:07:49.560Z,25.16
2017-04-30T11:09:02.143Z,25.39
2017-04-30T11:10:14.101Z,25.44
2017-04-30T11:11:26.654Z,25.51
2017-04-30T11:12:39.207Z,25.61
2017-04-30T11:13:51.767Z,25.63
2017-04-30T11:15:04.337Z,25.56
2017-04-30T11:16:16.594Z,25.67
2017-04-30T11:17:28.884Z,25.73
2017-04-30T11:18:41.432Z,25.58
2017-04-30T11:19:54.001Z,25.62
2017-04-30T11:21:06.576Z,25.56
2017-04-30T11:22:18.839Z,25.62
2017-04-30T11:23:31.409Z,25.86
2017-04-30T11:24:43.655Z,25.98
2017-04-30T11:25:56.198Z,25.96
2017-04-30T11:27:08.444Z,25.85
2017-04-30T11:28:21.014Z,25.52
2017-04-30T11:29:33.585Z,25.43
2017-04-30T11:30:46.159Z,25.43
2017-04-30T11:31:58.712Z,25.54
2017-04-30T11:33:11.248Z,25.51
2017-04-30T11:34:23.197Z,25.52
2017-04-30T11:35:35.747Z,25.31
2017-04-30T11:36:48.311Z,25.33
2017-04-30T11:38:00.564Z,25.33
2017-04-30T11:39:13.110Z,25.34
2017-04-30T11:40:25.676Z,25.26
2017-04-30T11:41:38.280Z,25.16
2017-04-30T11:42:50.868Z,25.15
2017-04-30T11:44:03.393Z,25.03
2017-04-30T11:45:15.644Z,24.81
2017-04-30T11:46:27.885Z,24.68
2017-04-30T11:47:40.435Z,24.86
2017-04-30T11:48:52.981Z,24.78
2017-04-30T11:50:04.952Z,24.88
2017-04-30T11:51:17.212Z,24.93
2017-04-30T11:52:29.736Z,24.85
2017-04-30T11:53:42.311Z,24.75
2017-04-30T11:54:54.253Z,24.81
2017-04-30T11:56:06.807Z,24.89
2017-04-30T11:57:19.353Z,24.79
2017-04-30T11:58:31.329Z,24.79
2017-04-30T11:59:43.908Z,24.58
2017-04-30T12:00:56.461Z,24.69
2017-04-30T12:02:09.014Z,24.61
2017-04-30T12:03:21.571Z,24.81
2017-04-30T12:04:34.117Z,24.96
2017-04-30T12:05:46.642Z,24.99
2017-04-30T12:06:59.184Z,25.14
2017-04-30T12:08:11.155Z,24.85
2017-04-30T12:09:23.472Z,24.78
2017-04-30T12:10:36.031Z,24.88
2017-04-30T12:11:48.603Z,24.99
2017-04-30T12:13:01.173Z,25.18
2017-04-30T12:14:13.722Z,25.07
2017-04-30T12:15:25.987Z,24.97
2017-04-30T12:16:38.233Z,24.75
2017-04-30T12:17:50.796Z,24.63
2017-04-30T12:19:03.379Z,24.94
2017-04-30T12:20:15.950Z,25.03
2017-04-30T12:21:28.510Z,24.92
2017-04-30T12:22:40.755Z,24.99
2017-04-30T12:23:53.290Z,24.78
2017-04-30T12:25:05.851Z,24.68
2017-04-30T12:26:18.154Z,24.77
2017-04-30T12:27:30.697Z,24.84
2017-04-30T12:28:43.260Z,25.18
2017-04-30T12:29:55.813Z,24.97
2017-04-30T12:31:08.362Z,24.89
2017-04-30T12:32:20.601Z,24.89
2017-04-30T12:33:33.122Z,24.82
2017-04-30T12:34:45.675Z,24.82
2017-04-30T12:35:58.235Z,24.74
2017-04-30T12:37:10.510Z,24.5
2017-04-30T12:38:23.060Z,24.16
2017-04-30T12:39:35.614Z,24.11
2017-04-30T12:40:47.897Z,24.1
2017-04-30T12:42:00.139Z,24.25
2017-04-30T12:43:12.696Z,24.26
2017-04-30T12:44:25.264Z,24.13
2017-04-30T12:45:37.806Z,23.95
2017-04-30T12:46:50.356Z,24.18
2017-04-30T12:48:02.920Z,24.16
2017-04-30T12:49:15.166Z,24.19
2017-04-30T12:50:27.743Z,24.21
2017-04-30T12:51:40.289Z,24.29
2017-04-30T12:52:52.831Z,24.21
2017-04-30T12:54:05.377Z,23.96
2017-04-30T12:55:17.323Z,23.91
2017-04-30T12:56:29.866Z,24.1
2017-04-30T12:57:42.099Z,24.22
2017-04-30T12:58:54.683Z,24.28
2017-04-30T13:00:07.230Z,24.24
2017-04-30T13:01:19.474Z,23.67
2017-04-30T13:02:31.749Z,23.62
2017-04-30T13:03:44.016Z,23.66
2017-04-30T13:04:56.566Z,23.64
2017-04-30T13:06:08.795Z,23.79
2017-04-30T13:07:21.061Z,23.88
2017-04-30T13:08:33.625Z,23.95
2017-04-30T13:09:46.171Z,23.82
2017-04-30T13:10:58.744Z,23.79
2017-04-30T13:12:11.287Z,23.84
2017-04-30T13:13:23.868Z,23.89
2017-04-30T13:14:36.417Z,23.77
2017-04-30T13:15:48.963Z,23.86
2017-04-30T13:17:01.503Z,24.01
2017-04-30T13:18:13.729Z,24.09
2017-04-30T13:19:26.275Z,24.06
2017-04-30T13:20:38.860Z,24.03
2017-04-30T13:21:51.408Z,24.03
2017-04-30T13:23:03.957Z,24.09
2017-04-30T13:24:16.208Z,23.88
2017-04-30T13:25:28.479Z,23.73
2017-04-30T13:26:40.741Z,23.16
2017-04-30T13:27:53.292Z,22.83
2017-04-30T13:29:05.540Z,22.37
2017-04-30T13:30:18.106Z,22.22
2017-04-30T13:31:30.646Z,21.99
2017-04-30T13:32:43.222Z,21.77
2017-04-30T13:33:55.491Z,21.7
2017-04-30T13:35:08.026Z,21.63
2017-04-30T13:36:20.588Z,21.5
2017-04-30T13:37:33.127Z,21.47
2017-04-30T13:38:45.358Z,21.51
2017-04-30T13:39:57.930Z,21.48
2017-04-30T13:41:10.179Z,21.59
2017-04-30T13:42:22.459Z,21.37
2017-04-30T13:43:34.993Z,21.33
2017-04-30T13:44:47.527Z,21.4
2017-04-30T13:46:00.081Z,21.2
2017-04-30T13:47:12.026Z,21.33
2017-04-30T13:48:24.576Z,21.47
2017-04-30T13:49:36.810Z,21.48
2017-04-30T13:50:49.343Z,21.3
2017-04-30T13:52:01.876Z,21.23
2017-04-30T13:53:13.523Z,21.25
2017-04-30T13:54:25.781Z,21.13
2017-04-30T13:55:38.373Z,21
2017-04-30T13:56:50.935Z,20.73
2017-04-30T13:58:03.493Z,20.55
2017-04-30T13:59:16.031Z,20.42
2017-04-30T14:00:28.610Z,20.12
2017-04-30T14:01:41.195Z,20.04
2017-04-30T14:02:53.769Z,19.85
2017-04-30T14:04:06.044Z,19.66
2017-04-30T14:05:18.318Z,19.32
2017-04-30T14:06:30.856Z,19.2
2017-04-30T14:07:43.399Z,18.98
2017-04-30T14:08:55.949Z,18.83
2017-04-30T14:10:08.490Z,18.66
2017-04-30T14:11:21.025Z,18.36
2017-04-30T14:12:33.585Z,18.31
2017-04-30T14:13:46.157Z,18.05
2017-04-30T14:14:58.710Z,18.05
2017-04-30T14:16:10.982Z,17.87
2017-04-30T14:17:23.541Z,17.84
2017-04-30T14:18:36.090Z,17.65
2017-04-30T14:19:48.919Z,17.53
2017-04-30T14:21:01.483Z,17.47
2017-04-30T14:22:13.408Z,17.39
2017-04-30T14:23:25.946Z,17.27
2017-04-30T14:24:38.467Z,17.09
2017-04-30T14:25:50.695Z,16.98
2017-04-30T14:27:03.258Z,16.77
2017-04-30T14:28:15.489Z,16.64
2017-04-30T14:29:28.051Z,16.5
2017-04-30T14:30:40.595Z,16.47
2017-04-30T14:31:53.157Z,16.43
2017-04-30T14:33:05.700Z,16.39
2017-04-30T14:34:17.984Z,16.24
2017-04-30T14:35:30.562Z,16.17
2017-04-30T14:36:43.106Z,16.05
2017-04-30T14:37:55.355Z,16.02
2017-04-30T14:39:07.902Z,15.8
2017-04-30T14:40:20.150Z,15.83
2017-04-30T14:41:32.699Z,15.66
2017-04-30T14:42:45.232Z,15.72
2017-04-30T14:43:57.790Z,15.54
2017-04-30T14:45:10.350Z,15.45
2017-04-30T14:46:22.577Z,15.33
2017-04-30T14:47:35.125Z,15.43
2017-04-30T14:48:47.690Z,15.27
2017-04-30T14:50:00.234Z,15.33
2017-04-30T14:51:12.761Z,15.22
2017-04-30T14:52:25.000Z,15.12
2017-04-30T14:53:37.543Z,15.02
2017-04-30T14:54:50.152Z,14.9
2017-04-30T14:56:02.671Z,14.93
2017-04-30T14:57:15.230Z,14.92
2017-04-30T14:58:27.760Z,14.92
2017-04-30T14:59:40.283Z,14.89
2017-04-30T15:00:52.805Z,14.74
2017-04-30T15:02:05.348Z,14.77
2017-04-30T15:03:17.564Z,14.62
2017-04-30T15:04:30.107Z,14.62
2017-04-30T15:05:42.634Z,14.58
2017-04-30T15:06:54.586Z,14.49
2017-04-30T15:08:07.097Z,14.61
2017-04-30T15:09:19.365Z,14.55
2017-04-30T15:10:31.918Z,14.51
2017-04-30T15:11:44.142Z,14.53
2017-04-30T15:12:56.390Z,14.44
2017-04-30T15:14:09.174Z,14.34
2017-04-30T15:15:21.704Z,14.41
2017-04-30T15:16:33.952Z,14.22
2017-04-30T15:17:46.494Z,14.23
2017-04-30T15:18:58.745Z,14.12
2017-04-30T15:20:11.303Z,14.2
2017-04-30T15:21:23.526Z,14.07
2017-04-30T15:22:35.477Z,14.07
2017-04-30T15:23:47.984Z,14.03
2017-04-30T15:25:00.246Z,14.01
2017-04-30T15:26:12.768Z,13.93
2017-04-30T15:27:25.014Z,13.95
2017-04-30T15:28:37.252Z,13.93
2017-04-30T15:29:49.799Z,13.97
2017-04-30T15:31:02.346Z,13.87
2017-04-30T15:32:14.590Z,13.86
2017-04-30T15:33:26.820Z,13.82
2017-04-30T15:34:39.390Z,13.93
2017-04-30T15:35:51.912Z,13.91
2017-04-30T15:37:04.457Z,13.91
2017-04-30T15:38:16.692Z,13.8
2017-04-30T15:39:28.921Z,13.89
2017-04-30T15:40:41.445Z,13.89
2017-04-30T15:41:53.991Z,13.87
2017-04-30T15:43:06.526Z,13.78
2017-04-30T15:44:19.059Z,13.82
2017-04-30T15:45:31.618Z,13.75
2017-04-30T15:46:44.163Z,13.82
2017-04-30T15:47:56.388Z,13.83
2017-04-30T15:49:08.919Z,13.67